sensor_id;sensor_type;location;lat;lon;timestamp;pressure;altitude;pressure_sealevel;temperature;humidity
30636;BME280;17400;52.392;9.750;2023-01-27T00:01:03;101647.13;;;2.96;100.00
30636;BME280;17400;52.392;9.750;2023-01-27T00:03:32;101650.41;;;2.99;100.00
30636;BME280;17400;52.392;9.750;2023-01-27T00:05:59;101648.34;;;3.03;100.00
30636;BME280;17400;52.392;9.750;2023-01-27T00:08:27;101641.16;;;3.04;100.00
30636;BME280;17400;52.392;9.750;2023-01-27T00:11:00;101642.59;;;3.08;100.00
30636;BME280;17400;52.392;9.750;2023-01-27T00:13:42;101641.38;;;3.12;100.00
30636;BME280;17400;52.392;9.750;2023-01-27T00:16:09;101635.78;;;3.15;100.00
30636;BME280;17400;52.392;9.750;2023-01-27T00:18:38;101633.13;;;3.15;100.00
30636;BME280;17400;52.392;9.750;2023-01-27T00:21:05;101627.63;;;3.16;100.00
30636;BME280;17400;52.392;9.750;2023-01-27T00:23:51;101627.25;;;3.21;100.00
30636;BME280;17400;52.392;9.750;2023-01-27T00:26:38;101629.78;;;3.23;100.00
30636;BME280;17400;52.392;9.750;2023-01-27T00:29:06;101619.06;;;3.23;100.00
30636;BME280;17400;52.392;9.750;2023-01-27T00:31:34;101625.53;;;3.20;100.00
30636;BME280;17400;52.392;9.750;2023-01-27T00:34:19;101620.09;;;3.10;100.00
30636;BME280;17400;52.392;9.750;2023-01-27T00:36:46;101621.81;;;3.11;100.00
30636;BME280;17400;52.392;9.750;2023-01-27T00:39:14;101627.03;;;3.13;100.00
30636;BME280;17400;52.392;9.750;2023-01-27T00:41:43;101628.59;;;3.15;100.00
30636;BME280;17400;52.392;9.750;2023-01-27T00:44:11;101631.41;;;3.14;100.00
30636;BME280;17400;52.392;9.750;2023-01-27T00:46:39;101631.28;;;3.15;100.00
30636;BME280;17400;52.392;9.750;2023-01-27T00:49:08;101633.69;;;3.19;100.00
30636;BME280;17400;52.392;9.750;2023-01-27T00:51:36;101638.81;;;3.22;100.00
30636;BME280;17400;52.392;9.750;2023-01-27T00:54:04;101648.50;;;3.23;100.00
30636;BME280;17400;52.392;9.750;2023-01-27T00:56:32;101642.19;;;3.24;100.00
30636;BME280;17400;52.392;9.750;2023-01-27T00:59:02;101650.22;;;3.24;100.00
30636;BME280;17400;52.392;9.750;2023-01-27T01:01:30;101652.91;;;3.24;100.00
30636;BME280;17400;52.392;9.750;2023-01-27T01:03:59;101652.91;;;3.24;100.00
30636;BME280;17400;52.392;9.750;2023-01-27T01:06:27;101659.13;;;3.24;100.00
30636;BME280;17400;52.392;9.750;2023-01-27T01:08:56;101658.50;;;3.21;100.00
30636;BME280;17400;52.392;9.750;2023-01-27T01:11:24;101662.16;;;3.20;100.00
30636;BME280;17400;52.392;9.750;2023-01-27T01:13:53;101671.28;;;3.17;100.00
30636;BME280;17400;52.392;9.750;2023-01-27T01:16:24;101670.06;;;3.21;100.00
30636;BME280;17400;52.392;9.750;2023-01-27T01:18:52;101668.59;;;3.17;100.00
30636;BME280;17400;52.392;9.750;2023-01-27T01:21:23;101667.50;;;3.20;100.00
30636;BME280;17400;52.392;9.750;2023-01-27T01:23:55;101673.34;;;3.25;100.00
30636;BME280;17400;52.392;9.750;2023-01-27T01:26:25;101673.81;;;3.30;100.00
30636;BME280;17400;52.392;9.750;2023-01-27T01:28:52;101670.16;;;3.31;100.00
30636;BME280;17400;52.392;9.750;2023-01-27T01:31:20;101678.06;;;3.32;100.00
30636;BME280;17400;52.392;9.750;2023-01-27T01:33:49;101683.16;;;3.36;100.00
30636;BME280;17400;52.392;9.750;2023-01-27T01:36:19;101671.47;;;3.37;100.00
30636;BME280;17400;52.392;9.750;2023-01-27T01:38:47;101677.66;;;3.37;100.00
30636;BME280;17400;52.392;9.750;2023-01-27T01:41:18;101677.53;;;3.39;100.00
30636;BME280;17400;52.392;9.750;2023-01-27T01:43:46;101679.25;;;3.40;100.00
30636;BME280;17400;52.392;9.750;2023-01-27T01:46:15;101676.44;;;3.41;100.00
30636;BME280;17400;52.392;9.750;2023-01-27T01:48:44;101675.59;;;3.41;100.00
30636;BME280;17400;52.392;9.750;2023-01-27T01:51:18;101678.41;;;3.39;100.00
30636;BME280;17400;52.392;9.750;2023-01-27T01:53:50;101676.56;;;3.40;100.00
30636;BME280;17400;52.392;9.750;2023-01-27T01:56:24;101679.00;;;3.43;100.00
30636;BME280;17400;52.392;9.750;2023-01-27T01:58:53;101683.28;;;3.45;100.00
30636;BME280;17400;52.392;9.750;2023-01-27T02:01:22;101679.13;;;3.41;100.00
30636;BME280;17400;52.392;9.750;2023-01-27T02:03:55;101681.94;;;3.40;100.00
30636;BME280;17400;52.392;9.750;2023-01-27T06:28:44;101817.78;;;3.70;100.00
30636;BME280;17400;52.392;9.750;2023-01-27T06:31:13;101819.50;;;3.71;100.00
30636;BME280;17400;52.392;9.750;2023-01-27T06:33:43;101816.34;;;3.77;100.00
30636;BME280;17400;52.392;9.750;2023-01-27T06:36:12;101822.16;;;3.82;100.00
30636;BME280;17400;52.392;9.750;2023-01-27T06:38:40;101822.53;;;3.78;100.00
30636;BME280;17400;52.392;9.750;2023-01-27T06:41:08;101818.03;;;3.78;100.00
30636;BME280;17400;52.392;9.750;2023-01-27T06:43:36;101819.13;;;3.76;100.00
30636;BME280;17400;52.392;9.750;2023-01-27T06:46:05;101830.69;;;3.76;100.00
30636;BME280;17400;52.392;9.750;2023-01-27T06:48:34;101821.81;;;3.76;100.00
30636;BME280;17400;52.392;9.750;2023-01-27T06:51:03;101827.75;;;3.79;100.00
30636;BME280;17400;52.392;9.750;2023-01-27T06:53:31;101824.22;;;3.79;100.00
30636;BME280;17400;52.392;9.750;2023-01-27T06:56:00;101829.72;;;3.77;100.00
30636;BME280;17400;52.392;9.750;2023-01-27T06:58:28;101842.50;;;3.74;100.00
30636;BME280;17400;52.392;9.750;2023-01-27T07:00:56;101844.44;;;3.72;100.00
30636;BME280;17400;52.392;9.750;2023-01-27T07:03:25;101851.38;;;3.74;100.00
30636;BME280;17400;52.392;9.750;2023-01-27T07:05:53;101847.50;;;3.67;100.00
30636;BME280;17400;52.392;9.750;2023-01-27T07:08:20;101854.56;;;3.68;100.00
30636;BME280;17400;52.392;9.750;2023-01-27T07:10:48;101856.25;;;3.69;100.00
30636;BME280;17400;52.392;9.750;2023-01-27T07:13:16;101853.97;;;3.64;100.00
30636;BME280;17400;52.392;9.750;2023-01-27T07:15:44;101867.34;;;3.64;100.00
30636;BME280;17400;52.392;9.750;2023-01-27T07:18:12;101868.19;;;3.65;100.00
30636;BME280;17400;52.392;9.750;2023-01-27T07:20:41;101868.44;;;3.62;100.00
30636;BME280;17400;52.392;9.750;2023-01-27T07:23:09;101868.94;;;3.67;100.00
30636;BME280;17400;52.392;9.750;2023-01-27T07:25:38;101873.44;;;3.66;100.00
30636;BME280;17400;52.392;9.750;2023-01-27T07:28:06;101886.09;;;3.64;100.00
30636;BME280;17400;52.392;9.750;2023-01-27T07:30:34;101883.28;;;3.66;100.00
30636;BME280;17400;52.392;9.750;2023-01-27T07:33:03;101883.91;;;3.70;100.00
30636;BME280;17400;52.392;9.750;2023-01-27T07:35:31;101886.59;;;3.70;100.00
30636;BME280;17400;52.392;9.750;2023-01-27T07:38:00;101888.28;;;3.71;100.00
30636;BME280;17400;52.392;9.750;2023-01-27T07:40:28;101899.00;;;3.71;100.00
30636;BME280;17400;52.392;9.750;2023-01-27T07:42:57;101893.88;;;3.67;100.00
30636;BME280;17400;52.392;9.750;2023-01-27T07:45:26;101898.38;;;3.67;100.00
30636;BME280;17400;52.392;9.750;2023-01-27T07:47:58;101898.38;;;3.67;100.00
30636;BME280;17400;52.392;9.750;2023-01-27T07:50:26;101905.81;;;3.63;100.00
30636;BME280;17400;52.392;9.750;2023-01-27T07:52:57;101908.63;;;3.62;100.00
30636;BME280;17400;52.392;9.750;2023-01-27T07:55:26;101907.88;;;3.60;100.00
30636;BME280;17400;52.392;9.750;2023-01-27T07:57:54;101913.22;;;3.60;100.00
30636;BME280;17400;52.392;9.750;2023-01-27T08:00:22;101910.31;;;3.63;100.00
30636;BME280;17400;52.392;9.750;2023-01-27T08:02:50;101909.34;;;3.64;100.00
30636;BME280;17400;52.392;9.750;2023-01-27T08:05:18;101917.63;;;3.61;100.00
30636;BME280;17400;52.392;9.750;2023-01-27T08:07:46;101921.25;;;3.60;100.00
30636;BME280;17400;52.392;9.750;2023-01-27T08:10:15;101926.25;;;3.64;100.00
30636;BME280;17400;52.392;9.750;2023-01-27T08:12:45;101928.81;;;3.66;100.00
30636;BME280;17400;52.392;9.750;2023-01-27T08:15:15;101927.00;;;3.66;100.00
30636;BME280;17400;52.392;9.750;2023-01-27T08:17:52;101928.09;;;3.64;100.00
30636;BME280;17400;52.392;9.750;2023-01-27T08:20:20;101928.31;;;3.61;100.00
30636;BME280;17400;52.392;9.750;2023-01-27T08:22:47;101936.84;;;3.66;100.00
30636;BME280;17400;52.392;9.750;2023-01-27T08:25:15;101941.72;;;3.72;100.00
30636;BME280;17400;52.392;9.750;2023-01-27T08:27:48;101935.50;;;3.72;100.00
30636;BME280;17400;52.392;9.750;2023-01-27T08:30:16;101946.34;;;3.70;100.00
30636;BME280;17400;52.392;9.750;2023-01-27T08:32:44;101936.84;;;3.66;100.00
30636;BME280;17400;52.392;9.750;2023-01-27T08:35:12;101945.63;;;3.68;100.00
30636;BME280;17400;52.392;9.750;2023-01-27T08:37:39;101946.00;;;3.75;100.00
30636;BME280;17400;52.392;9.750;2023-01-27T08:40:08;101955.25;;;3.71;100.00
30636;BME280;17400;52.392;9.750;2023-01-27T08:42:37;101956.09;;;3.71;100.00
30636;BME280;17400;52.392;9.750;2023-01-27T08:45:07;101954.38;;;3.70;100.00
30636;BME280;17400;52.392;9.750;2023-01-27T08:47:35;101959.59;;;3.72;100.00
30636;BME280;17400;52.392;9.750;2023-01-27T08:50:03;101963.38;;;3.69;100.00
30636;BME280;17400;52.392;9.750;2023-01-27T08:52:30;101972.63;;;3.54;100.00
30636;BME280;17400;52.392;9.750;2023-01-27T08:54:58;101974.94;;;3.58;100.00
30636;BME280;17400;52.392;9.750;2023-01-27T08:57:26;101965.44;;;3.54;100.00
30636;BME280;17400;52.392;9.750;2023-01-27T08:59:53;101969.84;;;3.55;100.00
30636;BME280;17400;52.392;9.750;2023-01-27T09:02:22;101973.84;;;3.61;100.00
30636;BME280;17400;52.392;9.750;2023-01-27T09:04:50;101972.28;;;3.70;100.00
30636;BME280;17400;52.392;9.750;2023-01-27T09:07:18;101975.09;;;3.68;100.00
30636;BME280;17400;52.392;9.750;2023-01-27T09:09:46;101974.97;;;3.70;100.00
30636;BME280;17400;52.392;9.750;2023-01-27T09:12:14;101980.66;;;3.65;100.00
30636;BME280;17400;52.392;9.750;2023-01-27T09:14:42;101982.25;;;3.56;100.00
30636;BME280;17400;52.392;9.750;2023-01-27T09:17:10;101983.34;;;3.65;100.00
30636;BME280;17400;52.392;9.750;2023-01-27T09:19:39;101993.34;;;3.74;100.00
30636;BME280;17400;52.392;9.750;2023-01-27T09:22:06;101997.38;;;3.80;100.00
30636;BME280;17400;52.392;9.750;2023-01-27T09:24:34;101991.16;;;3.79;100.00
30636;BME280;17400;52.392;9.750;2023-01-27T09:27:02;101988.09;;;3.73;100.00
30636;BME280;17400;52.392;9.750;2023-01-27T09:29:29;101991.88;;;3.70;100.00
30636;BME280;17400;52.392;9.750;2023-01-27T09:31:57;101995.91;;;3.76;100.00
30636;BME280;17400;52.392;9.750;2023-01-27T09:34:25;101999.69;;;3.84;100.00
30636;BME280;17400;52.392;9.750;2023-01-27T09:36:58;101996.03;;;3.86;100.00
30636;BME280;17400;52.392;9.750;2023-01-27T09:39:28;101996.75;;;3.76;100.00
30636;BME280;17400;52.392;9.750;2023-01-27T09:42:10;102002.47;;;3.72;100.00
30636;BME280;17400;52.392;9.750;2023-01-27T09:44:56;101997.72;;;3.75;100.00
30636;BME280;17400;52.392;9.750;2023-01-27T09:47:40;101999.56;;;3.86;100.00
30636;BME280;17400;52.392;9.750;2023-01-27T09:50:24;102001.03;;;3.79;100.00
30636;BME280;17400;52.392;9.750;2023-01-27T09:53:19;101994.19;;;3.86;100.00
30636;BME280;17400;52.392;9.750;2023-01-27T09:55:54;101996.78;;;3.88;100.00
30636;BME280;17400;52.392;9.750;2023-01-27T09:58:34;101999.06;;;3.92;100.00
30636;BME280;17400;52.392;9.750;2023-01-27T10:01:13;101995.56;;;3.92;100.00
30636;BME280;17400;52.392;9.750;2023-01-27T10:04:05;102004.31;;;3.94;100.00
30636;BME280;17400;52.392;9.750;2023-01-27T10:06:56;101995.03;;;3.98;100.00
30636;BME280;17400;52.392;9.750;2023-01-27T10:10:10;102001.38;;;4.08;100.00
30636;BME280;17400;52.392;9.750;2023-01-27T10:12:52;101996.28;;;4.05;100.00
30636;BME280;17400;52.392;9.750;2023-01-27T10:15:33;101997.38;;;4.03;100.00
30636;BME280;17400;52.392;9.750;2023-01-27T10:18:14;102006.00;;;3.95;100.00
30636;BME280;17400;52.392;9.750;2023-01-27T10:20:47;101991.28;;;3.89;100.00
30636;BME280;17400;52.392;9.750;2023-01-27T10:23:26;101994.69;;;3.91;100.00
30636;BME280;17400;52.392;9.750;2023-01-27T10:26:07;101994.81;;;3.90;100.00
30636;BME280;17400;52.392;9.750;2023-01-27T10:28:42;101991.63;;;3.84;100.00
30636;BME280;17400;52.392;9.750;2023-01-27T10:31:17;101986.28;;;3.84;100.00
30636;BME280;17400;52.392;9.750;2023-01-27T10:33:50;101991.41;;;3.88;100.00
30636;BME280;17400;52.392;9.750;2023-01-27T10:36:25;101987.75;;;3.89;100.00
30636;BME280;17400;52.392;9.750;2023-01-27T10:39:02;101999.91;;;3.93;100.00
30636;BME280;17400;52.392;9.750;2023-01-27T10:41:42;101998.22;;;3.92;100.00
30636;BME280;17400;52.392;9.750;2023-01-27T10:44:23;102001.88;;;3.91;100.00
30636;BME280;17400;52.392;9.750;2023-01-27T10:47:00;102011.38;;;3.95;100.00
30636;BME280;17400;52.392;9.750;2023-01-27T10:49:34;102012.59;;;3.91;100.00
30636;BME280;17400;52.392;9.750;2023-01-27T10:52:09;102014.03;;;3.83;100.00
30636;BME280;17400;52.392;9.750;2023-01-27T10:54:41;102004.81;;;3.88;100.00
30636;BME280;17400;52.392;9.750;2023-01-27T10:57:14;102001.13;;;3.89;100.00
30636;BME280;17400;52.392;9.750;2023-01-27T10:59:48;102016.63;;;3.85;100.00
30636;BME280;17400;52.392;9.750;2023-01-27T11:02:40;102009.78;;;3.81;100.00
30636;BME280;17400;52.392;9.750;2023-01-27T11:05:16;102014.41;;;3.79;100.00
30636;BME280;17400;52.392;9.750;2023-01-27T11:07:48;102023.28;;;3.79;100.00
30636;BME280;17400;52.392;9.750;2023-01-27T11:10:20;102016.13;;;3.91;100.00
30636;BME280;17400;52.392;9.750;2023-01-27T11:12:52;102009.69;;;3.82;100.00
30636;BME280;17400;52.392;9.750;2023-01-27T11:15:26;102012.00;;;3.76;100.00
30636;BME280;17400;52.392;9.750;2023-01-27T11:17:58;102007.22;;;3.79;100.00
30636;BME280;17400;52.392;9.750;2023-01-27T11:20:29;102015.38;;;3.78;100.00
30636;BME280;17400;52.392;9.750;2023-01-27T11:23:03;102013.78;;;3.75;100.00
30636;BME280;17400;52.392;9.750;2023-01-27T11:25:41;102011.34;;;3.83;100.00
30636;BME280;17400;52.392;9.750;2023-01-27T11:28:21;102010.25;;;3.86;100.00
30636;BME280;17400;52.392;9.750;2023-01-27T11:30:57;102004.91;;;3.86;100.00
30636;BME280;17400;52.392;9.750;2023-01-27T11:33:33;102012.44;;;3.81;100.00
30636;BME280;17400;52.392;9.750;2023-01-27T11:36:09;102017.81;;;3.70;100.00
30636;BME280;17400;52.392;9.750;2023-01-27T11:38:37;102017.69;;;3.71;100.00
30636;BME280;17400;52.392;9.750;2023-01-27T11:41:05;102016.13;;;3.80;100.00
30636;BME280;17400;52.392;9.750;2023-01-27T11:43:34;102014.66;;;3.87;100.00
30636;BME280;17400;52.392;9.750;2023-01-27T11:46:09;102012.09;;;3.86;100.00
30636;BME280;17400;52.392;9.750;2023-01-27T11:48:41;102010.03;;;3.78;100.00
30636;BME280;17400;52.392;9.750;2023-01-27T11:51:13;102008.69;;;3.83;100.00
30636;BME280;17400;52.392;9.750;2023-01-27T11:53:44;102006.50;;;3.89;100.00
30636;BME280;17400;52.392;9.750;2023-01-27T11:56:16;102003.59;;;3.92;100.00
30636;BME280;17400;52.392;9.750;2023-01-27T11:58:50;102008.34;;;3.88;100.00
30636;BME280;17400;52.392;9.750;2023-01-27T12:01:23;102000.56;;;3.85;100.00
30636;BME280;17400;52.392;9.750;2023-01-27T12:03:58;102001.13;;;3.89;100.00
30636;BME280;17400;52.392;9.750;2023-01-27T12:06:32;101997.97;;;3.95;100.00
30636;BME280;17400;52.392;9.750;2023-01-27T12:09:02;101995.66;;;4.02;100.00
30636;BME280;17400;52.392;9.750;2023-01-27T12:11:30;101990.03;;;4.05;100.00
30636;BME280;17400;52.392;9.750;2023-01-27T12:14:01;101993.72;;;4.04;100.00
30636;BME280;17400;52.392;9.750;2023-01-27T12:16:41;101993.38;;;3.97;100.00
30636;BME280;17400;52.392;9.750;2023-01-27T12:19:21;101998.09;;;3.93;100.00
30636;BME280;17400;52.392;9.750;2023-01-27T12:21:53;101983.84;;;3.93;100.00
30636;BME280;17400;52.392;9.750;2023-01-27T12:24:26;101990.66;;;3.86;100.00
30636;BME280;17400;52.392;9.750;2023-01-27T12:26:55;101986.16;;;3.86;100.00
30636;BME280;17400;52.392;9.750;2023-01-27T12:29:28;101988.00;;;3.86;100.00
30636;BME280;17400;52.392;9.750;2023-01-27T12:31:59;101981.53;;;3.88;100.00
30636;BME280;17400;52.392;9.750;2023-01-27T12:34:30;101983.59;;;3.84;100.00
30636;BME280;17400;52.392;9.750;2023-01-27T12:37:01;101978.03;;;3.88;100.00
30636;BME280;17400;52.392;9.750;2023-01-27T12:39:41;101982.38;;;3.89;100.00
30636;BME280;17400;52.392;9.750;2023-01-27T12:42:37;101973.88;;;3.95;100.00
30636;BME280;17400;52.392;9.750;2023-01-27T12:45:25;101984.31;;;3.98;100.00
30636;BME280;17400;52.392;9.750;2023-01-27T12:47:57;101979.69;;;3.89;100.00
30636;BME280;17400;52.392;9.750;2023-01-27T12:50:26;101979.34;;;3.93;100.00
30636;BME280;17400;52.392;9.750;2023-01-27T12:53:05;101973.59;;;3.98;100.00
30636;BME280;17400;52.392;9.750;2023-01-27T12:55:39;101977.88;;;4.00;100.00
30636;BME280;17400;52.392;9.750;2023-01-27T12:58:27;101973.59;;;3.98;100.00
30636;BME280;17400;52.392;9.750;2023-01-27T13:00:57;101973.38;;;4.01;100.00
30636;BME280;17400;52.392;9.750;2023-01-27T13:03:26;101975.81;;;3.93;100.00
30636;BME280;17400;52.392;9.750;2023-01-27T13:05:57;101968.50;;;3.95;100.00
30636;BME280;17400;52.392;9.750;2023-01-27T13:08:27;101974.09;;;4.03;100.00
30636;BME280;17400;52.392;9.750;2023-01-27T13:11:01;101979.09;;;4.08;100.00
30636;BME280;17400;52.392;9.750;2023-01-27T13:13:29;101982.38;;;4.00;100.00
30636;BME280;17400;52.392;9.750;2023-01-27T13:16:04;101980.94;;;3.96;100.00
30636;BME280;17400;52.392;9.750;2023-01-27T13:18:34;101988.72;;;3.99;100.00
30636;BME280;17400;52.392;9.750;2023-01-27T13:21:10;101988.25;;;4.05;100.00
30636;BME280;17400;52.392;9.750;2023-01-27T13:23:39;101986.03;;;3.99;100.00
30636;BME280;17400;52.392;9.750;2023-01-27T13:26:15;101989.69;;;3.87;100.00
30636;BME280;17400;52.392;9.750;2023-01-27T13:28:48;101987.16;;;3.85;100.00
30636;BME280;17400;52.392;9.750;2023-01-27T13:31:28;101987.03;;;3.87;100.00
30636;BME280;17400;52.392;9.750;2023-01-27T13:34:02;101987.00;;;3.75;100.00
30636;BME280;17400;52.392;9.750;2023-01-27T13:36:36;101983.50;;;3.75;100.00
30636;BME280;17400;52.392;9.750;2023-01-27T13:39:11;101997.00;;;3.73;100.00
30636;BME280;17400;52.392;9.750;2023-01-27T13:41:46;101988.09;;;3.73;100.00
30636;BME280;17400;52.392;9.750;2023-01-27T13:44:23;101996.50;;;3.79;100.00
30636;BME280;17400;52.392;9.750;2023-01-27T13:46:57;101991.50;;;3.86;100.00
30636;BME280;17400;52.392;9.750;2023-01-27T13:49:33;101992.84;;;3.80;100.00
30636;BME280;17400;52.392;9.750;2023-01-27T13:52:04;101995.44;;;3.71;100.00
30636;BME280;17400;52.392;9.750;2023-01-27T13:54:32;101999.44;;;3.76;100.00
30636;BME280;17400;52.392;9.750;2023-01-27T13:57:22;101999.81;;;3.83;100.00
30636;BME280;17400;52.392;9.750;2023-01-27T14:00:04;101997.00;;;3.84;100.00
30636;BME280;17400;52.392;9.750;2023-01-27T14:03:06;101995.66;;;3.79;100.00
30636;BME280;17400;52.392;9.750;2023-01-27T14:05:57;102005.28;;;3.81;100.00
30636;BME280;17400;52.392;9.750;2023-01-27T14:08:49;102007.84;;;3.83;100.00
30636;BME280;17400;52.392;9.750;2023-01-27T14:11:26;102003.31;;;3.83;100.00
30636;BME280;17400;52.392;9.750;2023-01-27T14:14:10;102010.50;;;3.72;100.00
30636;BME280;17400;52.392;9.750;2023-01-27T14:16:51;102017.19;;;3.66;100.00
30636;BME280;17400;52.392;9.750;2023-01-27T14:19:30;102010.38;;;3.62;100.00
30636;BME280;17400;52.392;9.750;2023-01-27T14:22:08;102019.03;;;3.65;100.00
30636;BME280;17400;52.392;9.750;2023-01-27T14:24:45;102015.84;;;3.72;100.00
30636;BME280;17400;52.392;9.750;2023-01-27T14:27:19;102014.50;;;3.66;100.00
30636;BME280;17400;52.392;9.750;2023-01-27T14:29:55;102023.28;;;3.68;100.00
30636;BME280;17400;52.392;9.750;2023-01-27T14:32:31;102021.47;;;3.69;100.00
30636;BME280;17400;52.392;9.750;2023-01-27T14:35:15;102020.84;;;3.65;100.00
30636;BME280;17400;52.392;9.750;2023-01-27T14:37:53;102015.72;;;3.62;100.00
30636;BME280;17400;52.392;9.750;2023-01-27T14:40:26;102020.97;;;3.63;100.00
30636;BME280;17400;52.392;9.750;2023-01-27T14:43:17;102027.56;;;3.71;100.00
30636;BME280;17400;52.392;9.750;2023-01-27T14:45:51;102027.06;;;3.65;100.00
30636;BME280;17400;52.392;9.750;2023-01-27T14:48:34;102036.53;;;3.58;100.00
30636;BME280;17400;52.392;9.750;2023-01-27T14:51:10;102041.16;;;3.56;100.00
30636;BME280;17400;52.392;9.750;2023-01-27T14:53:52;102044.44;;;3.60;100.00
30636;BME280;17400;52.392;9.750;2023-01-27T14:56:31;102036.81;;;3.66;100.00
30636;BME280;17400;52.392;9.750;2023-01-27T14:59:08;102040.09;;;3.70;100.00
30636;BME280;17400;52.392;9.750;2023-01-27T15:01:44;102044.47;;;3.71;100.00
30636;BME280;17400;52.392;9.750;2023-01-27T15:04:25;102045.56;;;3.69;100.00
30636;BME280;17400;52.392;9.750;2023-01-27T15:07:04;102038.66;;;3.77;100.00
30636;BME280;17400;52.392;9.750;2023-01-27T15:10:00;102044.38;;;3.84;100.00
30636;BME280;17400;52.392;9.750;2023-01-27T15:15:47;102045.97;;;3.87;100.00
30636;BME280;17400;52.392;9.750;2023-01-27T15:21:24;102041.81;;;3.94;100.00
30636;BME280;17400;52.392;9.750;2023-01-27T15:24:14;102044.50;;;3.82;100.00
30636;BME280;17400;52.392;9.750;2023-01-27T15:26:46;102046.69;;;3.77;100.00
30636;BME280;17400;52.392;9.750;2023-01-27T15:29:22;102053.50;;;3.81;100.00
30636;BME280;17400;52.392;9.750;2023-01-27T15:32:12;102065.56;;;3.76;100.00
30636;BME280;17400;52.392;9.750;2023-01-27T15:34:51;102068.94;;;3.66;100.00
30636;BME280;17400;52.392;9.750;2023-01-27T15:37:21;102072.97;;;3.72;100.00
30636;BME280;17400;52.392;9.750;2023-01-27T15:40:03;102061.13;;;3.63;100.00
30636;BME280;17400;52.392;9.750;2023-01-27T15:42:50;102070.25;;;3.61;100.00
30636;BME280;17400;52.392;9.750;2023-01-27T15:45:27;102065.97;;;3.58;100.00
30636;BME280;17400;52.392;9.750;2023-01-27T15:47:58;102081.72;;;3.63;100.00
30636;BME280;17400;52.392;9.750;2023-01-27T15:50:31;102076.22;;;3.64;100.00
30636;BME280;17400;52.392;9.750;2023-01-27T15:53:01;102079.25;;;3.60;100.00
30636;BME280;17400;52.392;9.750;2023-01-27T15:55:33;102078.66;;;3.56;100.00
30636;BME280;17400;52.392;9.750;2023-01-27T15:58:10;102080.94;;;3.49;100.00
30636;BME280;17400;52.392;9.750;2023-01-27T16:00:49;102082.88;;;3.47;100.00
30636;BME280;17400;52.392;9.750;2023-01-27T16:03:22;102089.50;;;3.55;100.00
30636;BME280;17400;52.392;9.750;2023-01-27T16:05:53;102089.09;;;3.48;100.00
30636;BME280;17400;52.392;9.750;2023-01-27T16:08:23;102106.97;;;3.47;100.00
30636;BME280;17400;52.392;9.750;2023-01-27T16:11:23;102108.41;;;3.40;100.00
30636;BME280;17400;52.392;9.750;2023-01-27T16:14:31;102105.16;;;3.48;100.00
30636;BME280;17400;52.392;9.750;2023-01-27T16:17:23;102103.22;;;3.50;100.00
30636;BME280;17400;52.392;9.750;2023-01-27T16:19:56;102108.81;;;3.47;100.00
30636;BME280;17400;52.392;9.750;2023-01-27T16:22:27;102111.38;;;3.48;100.00
30636;BME280;17400;52.392;9.750;2023-01-27T16:25:11;102107.72;;;3.49;100.00
30636;BME280;17400;52.392;9.750;2023-01-27T16:27:47;102106.41;;;3.55;100.00
30636;BME280;17400;52.392;9.750;2023-01-27T16:30:24;102108.63;;;3.37;100.00
30636;BME280;17400;52.392;9.750;2023-01-27T16:33:01;102113.38;;;3.33;100.00
30636;BME280;17400;52.392;9.750;2023-01-27T16:35:39;102112.75;;;3.30;100.00
30636;BME280;17400;52.392;9.750;2023-01-27T16:38:19;102117.16;;;3.31;100.00
30636;BME280;17400;52.392;9.750;2023-01-27T16:40:52;102113.19;;;3.24;100.00
30636;BME280;17400;52.392;9.750;2023-01-27T16:43:24;102116.63;;;3.26;100.00
30636;BME280;17400;52.392;9.750;2023-01-27T16:45:59;102125.25;;;3.29;100.00
30636;BME280;17400;52.392;9.750;2023-01-27T16:48:31;102126.25;;;3.28;100.00
30636;BME280;17400;52.392;9.750;2023-01-27T16:51:12;102122.59;;;3.29;100.00
30636;BME280;17400;52.392;9.750;2023-01-27T16:53:44;102137.56;;;3.32;100.00
30636;BME280;17400;52.392;9.750;2023-01-27T16:56:19;102134.41;;;3.27;100.00
30636;BME280;17400;52.392;9.750;2023-01-27T16:58:47;102132.50;;;3.16;100.00
30636;BME280;17400;52.392;9.750;2023-01-27T17:01:22;102132.84;;;3.11;100.00
30636;BME280;17400;52.392;9.750;2023-01-27T17:03:54;102140.19;;;3.21;100.00
30636;BME280;17400;52.392;9.750;2023-01-27T17:06:36;102142.72;;;3.35;100.00
30636;BME280;17400;52.392;9.750;2023-01-27T17:09:18;102143.91;;;3.31;100.00
30636;BME280;17400;52.392;9.750;2023-01-27T17:11:46;102144.69;;;3.20;100.00
30636;BME280;17400;52.392;9.750;2023-01-27T17:14:14;102147.03;;;3.25;100.00
30636;BME280;17400;52.392;9.750;2023-01-27T17:16:58;102154.63;;;3.31;100.00
30636;BME280;17400;52.392;9.750;2023-01-27T17:19:29;102151.81;;;3.32;100.00
30636;BME280;17400;52.392;9.750;2023-01-27T17:21:59;102148.06;;;3.35;100.00
30636;BME280;17400;52.392;9.750;2023-01-27T17:24:29;102149.13;;;3.32;100.00
30636;BME280;17400;52.392;9.750;2023-01-27T17:27:00;102157.16;;;3.32;100.00
30636;BME280;17400;52.392;9.750;2023-01-27T17:29:32;102150.16;;;3.19;100.00
30636;BME280;17400;52.392;9.750;2023-01-27T17:32:03;102160.13;;;3.16;100.00
30636;BME280;17400;52.392;9.750;2023-01-27T17:34:40;102160.34;;;3.13;100.00
30636;BME280;17400;52.392;9.750;2023-01-27T17:37:13;102164.53;;;3.17;100.00
30636;BME280;17400;52.392;9.750;2023-01-27T17:39:44;102168.88;;;3.19;100.00
30636;BME280;17400;52.392;9.750;2023-01-27T17:42:13;102169.25;;;3.14;100.00
30636;BME280;17400;52.392;9.750;2023-01-27T17:44:41;102168.38;;;3.13;100.00
30636;BME280;17400;52.392;9.750;2023-01-27T17:47:13;102170.59;;;3.20;100.00
30636;BME280;17400;52.392;9.750;2023-01-27T17:49:42;102169.53;;;3.22;100.00
30636;BME280;17400;52.392;9.750;2023-01-27T17:52:16;102169.53;;;3.22;100.00